sensor_id;sensor_type;location;lat;lon;timestamp;P1;durP1;ratioP1;P2;durP2;ratioP2
34960;SDS011;30789;52.030;7.110;2022-11-11T00:00:48;3.90;;;2.00;;
34960;SDS011;30789;52.030;7.110;2022-11-11T00:03:14;6.18;;;1.98;;
34960;SDS011;30789;52.030;7.110;2022-11-11T00:05:41;4.55;;;1.95;;
34960;SDS011;30789;52.030;7.110;2022-11-11T00:08:08;2.88;;;1.63;;
34960;SDS011;30789;52.030;7.110;2022-11-11T00:10:36;6.60;;;1.85;;
34960;SDS011;30789;52.030;7.110;2022-11-11T00:13:02;5.07;;;2.13;;
34960;SDS011;30789;52.030;7.110;2022-11-11T00:15:30;7.53;;;2.30;;
34960;SDS011;30789;52.030;7.110;2022-11-11T00:17:57;5.45;;;2.30;;
34960;SDS011;30789;52.030;7.110;2022-11-11T00:20:41;4.22;;;2.20;;
34960;SDS011;30789;52.030;7.110;2022-11-11T00:23:26;8.60;;;2.20;;
34960;SDS011;30789;52.030;7.110;2022-11-11T00:26:12;6.93;;;2.35;;
34960;SDS011;30789;52.030;7.110;2022-11-11T00:28:39;2.65;;;1.45;;
34960;SDS011;30789;52.030;7.110;2022-11-11T00:31:07;6.38;;;2.70;;
34960;SDS011;30789;52.030;7.110;2022-11-11T00:33:34;3.60;;;1.83;;
34960;SDS011;30789;52.030;7.110;2022-11-11T00:36:02;5.18;;;2.17;;
34960;SDS011;30789;52.030;7.110;2022-11-11T00:38:28;4.90;;;2.08;;
34960;SDS011;30789;52.030;7.110;2022-11-11T00:41:15;6.13;;;1.98;;
34960;SDS011;30789;52.030;7.110;2022-11-11T00:43:43;4.53;;;1.90;;
34960;SDS011;30789;52.030;7.110;2022-11-11T00:46:11;7.47;;;1.90;;
34960;SDS011;30789;52.030;7.110;2022-11-11T00:48:55;6.30;;;2.22;;
34960;SDS011;30789;52.030;7.110;2022-11-11T00:51:39;6.20;;;2.15;;
34960;SDS011;30789;52.030;7.110;2022-11-11T00:54:06;4.93;;;2.20;;
34960;SDS011;30789;52.030;7.110;2022-11-11T00:56:34;7.78;;;1.80;;
34960;SDS011;30789;52.030;7.110;2022-11-11T00:59:01;2.78;;;1.85;;
34960;SDS011;30789;52.030;7.110;2022-11-11T01:01:29;4.10;;;2.05;;
34960;SDS011;30789;52.030;7.110;2022-11-11T01:03:55;3.65;;;1.92;;
34960;SDS011;30789;52.030;7.110;2022-11-11T01:06:23;4.93;;;1.90;;
34960;SDS011;30789;52.030;7.110;2022-11-11T01:08:49;6.40;;;2.10;;
34960;SDS011;30789;52.030;7.110;2022-11-11T01:11:16;3.10;;;1.90;;
34960;SDS011;30789;52.030;7.110;2022-11-11T01:13:46;5.65;;;1.90;;
34960;SDS011;30789;52.030;7.110;2022-11-11T01:16:13;4.55;;;2.03;;
34960;SDS011;30789;52.030;7.110;2022-11-11T01:18:42;4.28;;;1.85;;
34960;SDS011;30789;52.030;7.110;2022-11-11T01:21:10;4.55;;;2.03;;
34960;SDS011;30789;52.030;7.110;2022-11-11T01:23:38;6.40;;;2.50;;
34960;SDS011;30789;52.030;7.110;2022-11-11T01:26:07;6.13;;;2.40;;
34960;SDS011;30789;52.030;7.110;2022-11-11T01:28:36;3.28;;;2.08;;
34960;SDS011;30789;52.030;7.110;2022-11-11T01:31:05;3.83;;;1.50;;
34960;SDS011;30789;52.030;7.110;2022-11-11T01:33:33;3.20;;;2.10;;
34960;SDS011;30789;52.030;7.110;2022-11-11T01:36:04;5.63;;;1.90;;
34960;SDS011;30789;52.030;7.110;2022-11-11T01:38:32;6.25;;;2.25;;
34960;SDS011;30789;52.030;7.110;2022-11-11T01:40:59;3.75;;;2.20;;
34960;SDS011;30789;52.030;7.110;2022-11-11T01:43:46;7.20;;;2.13;;
34960;SDS011;30789;52.030;7.110;2022-11-11T01:46:17;3.83;;;1.70;;
34960;SDS011;30789;52.030;7.110;2022-11-11T01:48:52;5.47;;;1.67;;
34960;SDS011;30789;52.030;7.110;2022-11-11T01:51:39;8.35;;;2.28;;
34960;SDS011;30789;52.030;7.110;2022-11-11T01:54:08;5.03;;;2.30;;
34960;SDS011;30789;52.030;7.110;2022-11-11T01:56:39;4.40;;;1.70;;
34960;SDS011;30789;52.030;7.110;2022-11-11T01:59:08;4.82;;;2.13;;
34960;SDS011;30789;52.030;7.110;2022-11-11T02:01:41;6.43;;;2.30;;
34960;SDS011;30789;52.030;7.110;2022-11-11T02:04:09;7.78;;;2.88;;
34960;SDS011;30789;52.030;7.110;2022-11-11T02:06:55;3.10;;;1.85;;
34960;SDS011;30789;52.030;7.110;2022-11-11T02:09:25;6.77;;;2.40;;
34960;SDS011;30789;52.030;7.110;2022-11-11T02:11:52;4.10;;;2.33;;
34960;SDS011;30789;52.030;7.110;2022-11-11T02:14:42;2.78;;;2.30;;
34960;SDS011;30789;52.030;7.110;2022-11-11T02:17:14;6.72;;;2.65;;
34960;SDS011;30789;52.030;7.110;2022-11-11T02:19:43;7.32;;;2.40;;
34960;SDS011;30789;52.030;7.110;2022-11-11T02:22:15;10.75;;;2.55;;
34960;SDS011;30789;52.030;7.110;2022-11-11T02:24:49;6.95;;;2.63;;
34960;SDS011;30789;52.030;7.110;2022-11-11T02:27:17;5.18;;;2.38;;
34960;SDS011;30789;52.030;7.110;2022-11-11T02:29:46;4.63;;;2.50;;
34960;SDS011;30789;52.030;7.110;2022-11-11T02:32:15;8.35;;;2.85;;
34960;SDS011;30789;52.030;7.110;2022-11-11T02:34:41;8.63;;;2.60;;
34960;SDS011;30789;52.030;7.110;2022-11-11T02:37:08;6.07;;;2.90;;
34960;SDS011;30789;52.030;7.110;2022-11-11T02:39:36;6.32;;;2.70;;
34960;SDS011;30789;52.030;7.110;2022-11-11T02:42:08;5.75;;;2.65;;
34960;SDS011;30789;52.030;7.110;2022-11-11T02:44:38;5.75;;;2.78;;
34960;SDS011;30789;52.030;7.110;2022-11-11T02:47:05;8.10;;;2.50;;
34960;SDS011;30789;52.030;7.110;2022-11-11T02:49:31;6.13;;;3.00;;
34960;SDS011;30789;52.030;7.110;2022-11-11T02:51:58;7.25;;;2.95;;
34960;SDS011;30789;52.030;7.110;2022-11-11T02:54:24;5.97;;;3.05;;
34960;SDS011;30789;52.030;7.110;2022-11-11T02:56:51;5.32;;;2.67;;
34960;SDS011;30789;52.030;7.110;2022-11-11T02:59:34;6.07;;;2.95;;
34960;SDS011;30789;52.030;7.110;2022-11-11T03:02:01;8.43;;;3.15;;
34960;SDS011;30789;52.030;7.110;2022-11-11T03:04:28;6.93;;;3.40;;
34960;SDS011;30789;52.030;7.110;2022-11-11T03:06:54;4.85;;;3.25;;
34960;SDS011;30789;52.030;7.110;2022-11-11T03:09:21;6.50;;;3.03;;
34960;SDS011;30789;52.030;7.110;2022-11-11T03:11:47;6.43;;;2.63;;
34960;SDS011;30789;52.030;7.110;2022-11-11T03:14:14;5.57;;;3.10;;
34960;SDS011;30789;52.030;7.110;2022-11-11T03:16:41;5.60;;;2.97;;
34960;SDS011;30789;52.030;7.110;2022-11-11T03:19:25;6.70;;;2.95;;
34960;SDS011;30789;52.030;7.110;2022-11-11T03:21:52;4.20;;;3.03;;
34960;SDS011;30789;52.030;7.110;2022-11-11T03:24:19;6.88;;;2.95;;
34960;SDS011;30789;52.030;7.110;2022-11-11T03:26:46;4.15;;;2.92;;
34960;SDS011;30789;52.030;7.110;2022-11-11T03:29:11;3.97;;;2.92;;
34960;SDS011;30789;52.030;7.110;2022-11-11T03:31:38;7.55;;;3.00;;
34960;SDS011;30789;52.030;7.110;2022-11-11T03:34:06;7.93;;;3.58;;
34960;SDS011;30789;52.030;7.110;2022-11-11T03:36:44;5.03;;;2.72;;
34960;SDS011;30789;52.030;7.110;2022-11-11T03:39:25;5.70;;;3.17;;
34960;SDS011;30789;52.030;7.110;2022-11-11T03:41:51;8.25;;;4.05;;
34960;SDS011;30789;52.030;7.110;2022-11-11T03:44:17;5.30;;;3.30;;
34960;SDS011;30789;52.030;7.110;2022-11-11T03:46:44;6.65;;;3.97;;
34960;SDS011;30789;52.030;7.110;2022-11-11T03:49:12;8.52;;;3.88;;
34960;SDS011;30789;52.030;7.110;2022-11-11T03:51:38;7.05;;;3.15;;
34960;SDS011;30789;52.030;7.110;2022-11-11T03:54:05;7.78;;;3.42;;
34960;SDS011;30789;52.030;7.110;2022-11-11T03:56:31;5.30;;;3.60;;
34960;SDS011;30789;52.030;7.110;2022-11-11T03:58:58;7.43;;;3.40;;
34960;SDS011;30789;52.030;7.110;2022-11-11T04:01:24;5.63;;;3.90;;
34960;SDS011;30789;52.030;7.110;2022-11-11T04:04:04;5.32;;;3.78;;
34960;SDS011;30789;52.030;7.110;2022-11-11T04:06:52;10.50;;;3.80;;
34960;SDS011;30789;52.030;7.110;2022-11-11T04:09:36;5.28;;;3.78;;
34960;SDS011;30789;52.030;7.110;2022-11-11T04:12:20;6.00;;;3.67;;
34960;SDS011;30789;52.030;7.110;2022-11-11T04:14:48;5.63;;;3.78;;
34960;SDS011;30789;52.030;7.110;2022-11-11T04:17:32;10.70;;;3.40;;
34960;SDS011;30789;52.030;7.110;2022-11-11T04:19:58;6.57;;;4.22;;
34960;SDS011;30789;52.030;7.110;2022-11-11T04:22:43;8.90;;;4.78;;
34960;SDS011;30789;52.030;7.110;2022-11-11T04:25:10;10.05;;;5.10;;
34960;SDS011;30789;52.030;7.110;2022-11-11T04:27:55;9.98;;;4.43;;
34960;SDS011;30789;52.030;7.110;2022-11-11T04:30:35;8.95;;;4.47;;
34960;SDS011;30789;52.030;7.110;2022-11-11T04:33:02;15.80;;;5.07;;
34960;SDS011;30789;52.030;7.110;2022-11-11T04:35:27;7.70;;;4.22;;
34960;SDS011;30789;52.030;7.110;2022-11-11T04:37:55;7.85;;;4.40;;
34960;SDS011;30789;52.030;7.110;2022-11-11T04:40:42;7.40;;;4.47;;
34960;SDS011;30789;52.030;7.110;2022-11-11T04:43:26;9.93;;;4.57;;
34960;SDS011;30789;52.030;7.110;2022-11-11T04:45:52;12.05;;;4.88;;
34960;SDS011;30789;52.030;7.110;2022-11-11T04:48:18;8.90;;;4.75;;
34960;SDS011;30789;52.030;7.110;2022-11-11T04:50:45;8.32;;;4.68;;
34960;SDS011;30789;52.030;7.110;2022-11-11T04:53:13;6.43;;;4.22;;
34960;SDS011;30789;52.030;7.110;2022-11-11T04:55:41;9.07;;;4.75;;
34960;SDS011;30789;52.030;7.110;2022-11-11T04:58:27;8.75;;;4.63;;
34960;SDS011;30789;52.030;7.110;2022-11-11T05:00:54;8.05;;;5.05;;
34960;SDS011;30789;52.030;7.110;2022-11-11T05:03:20;6.05;;;4.38;;
34960;SDS011;30789;52.030;7.110;2022-11-11T05:05:48;7.60;;;4.68;;
34960;SDS011;30789;52.030;7.110;2022-11-11T05:08:35;7.35;;;4.43;;
34960;SDS011;30789;52.030;7.110;2022-11-11T05:11:22;9.52;;;4.47;;
34960;SDS011;30789;52.030;7.110;2022-11-11T05:13:52;9.40;;;4.63;;
34960;SDS011;30789;52.030;7.110;2022-11-11T05:16:38;10.10;;;4.80;;
34960;SDS011;30789;52.030;7.110;2022-11-11T05:19:24;8.32;;;4.45;;
34960;SDS011;30789;52.030;7.110;2022-11-11T05:22:10;8.38;;;5.05;;
34960;SDS011;30789;52.030;7.110;2022-11-11T05:24:40;7.70;;;4.20;;
34960;SDS011;30789;52.030;7.110;2022-11-11T05:27:24;10.13;;;4.65;;
34960;SDS011;30789;52.030;7.110;2022-11-11T05:29:51;7.70;;;4.05;;
34960;SDS011;30789;52.030;7.110;2022-11-11T05:32:18;6.38;;;3.75;;
34960;SDS011;30789;52.030;7.110;2022-11-11T05:34:46;8.30;;;4.13;;
34960;SDS011;30789;52.030;7.110;2022-11-11T05:37:13;6.88;;;4.10;;
34960;SDS011;30789;52.030;7.110;2022-11-11T05:39:41;8.00;;;4.65;;
34960;SDS011;30789;52.030;7.110;2022-11-11T05:42:08;9.80;;;4.28;;
34960;SDS011;30789;52.030;7.110;2022-11-11T05:44:35;4.70;;;3.55;;
34960;SDS011;30789;52.030;7.110;2022-11-11T05:47:02;13.45;;;4.93;;
34960;SDS011;30789;52.030;7.110;2022-11-11T05:49:29;6.10;;;4.03;;
34960;SDS011;30789;52.030;7.110;2022-11-11T05:51:55;6.47;;;3.67;;
34960;SDS011;30789;52.030;7.110;2022-11-11T05:54:22;7.47;;;3.65;;
34960;SDS011;30789;52.030;7.110;2022-11-11T05:56:50;6.20;;;3.72;;
34960;SDS011;30789;52.030;7.110;2022-11-11T05:59:17;7.70;;;4.00;;
34960;SDS011;30789;52.030;7.110;2022-11-11T06:01:43;6.65;;;3.70;;
34960;SDS011;30789;52.030;7.110;2022-11-11T06:04:10;7.47;;;3.35;;
34960;SDS011;30789;52.030;7.110;2022-11-11T06:06:36;7.40;;;3.03;;
34960;SDS011;30789;52.030;7.110;2022-11-11T06:09:03;4.20;;;3.60;;
34960;SDS011;30789;52.030;7.110;2022-11-11T06:11:30;6.93;;;3.67;;
34960;SDS011;30789;52.030;7.110;2022-11-11T06:13:58;4.35;;;3.40;;
34960;SDS011;30789;52.030;7.110;2022-11-11T06:16:25;5.82;;;4.18;;
34960;SDS011;30789;52.030;7.110;2022-11-11T06:18:51;7.00;;;3.33;;
34960;SDS011;30789;52.030;7.110;2022-11-11T06:21:18;6.65;;;3.47;;
34960;SDS011;30789;52.030;7.110;2022-11-11T06:23:44;7.43;;;3.95;;
34960;SDS011;30789;52.030;7.110;2022-11-11T06:26:11;6.22;;;3.80;;
34960;SDS011;30789;52.030;7.110;2022-11-11T06:28:37;6.13;;;3.22;;
34960;SDS011;30789;52.030;7.110;2022-11-11T06:31:05;7.43;;;3.35;;
34960;SDS011;30789;52.030;7.110;2022-11-11T06:33:32;10.70;;;3.95;;
34960;SDS011;30789;52.030;7.110;2022-11-11T06:35:59;7.50;;;3.80;;
34960;SDS011;30789;52.030;7.110;2022-11-11T06:38:25;6.70;;;4.00;;
34960;SDS011;30789;52.030;7.110;2022-11-11T06:40:52;6.00;;;3.00;;
34960;SDS011;30789;52.030;7.110;2022-11-11T06:43:18;4.53;;;3.50;;
34960;SDS011;30789;52.030;7.110;2022-11-11T06:45:45;6.38;;;3.70;;
34960;SDS011;30789;52.030;7.110;2022-11-11T06:48:16;4.78;;;3.13;;
34960;SDS011;30789;52.030;7.110;2022-11-11T06:50:43;9.13;;;3.80;;
34960;SDS011;30789;52.030;7.110;2022-11-11T06:53:10;6.40;;;4.15;;
34960;SDS011;30789;52.030;7.110;2022-11-11T06:55:38;9.68;;;3.45;;
34960;SDS011;30789;52.030;7.110;2022-11-11T06:58:05;6.68;;;3.38;;
34960;SDS011;30789;52.030;7.110;2022-11-11T07:00:31;7.13;;;3.65;;
34960;SDS011;30789;52.030;7.110;2022-11-11T07:02:58;7.07;;;3.15;;
34960;SDS011;30789;52.030;7.110;2022-11-11T07:05:26;5.43;;;3.25;;
34960;SDS011;30789;52.030;7.110;2022-11-11T07:07:52;8.18;;;3.28;;
34960;SDS011;30789;52.030;7.110;2022-11-11T07:10:19;6.25;;;3.22;;
34960;SDS011;30789;52.030;7.110;2022-11-11T07:12:46;6.07;;;2.97;;
34960;SDS011;30789;52.030;7.110;2022-11-11T07:15:12;7.45;;;3.25;;
34960;SDS011;30789;52.030;7.110;2022-11-11T07:17:39;5.22;;;2.92;;
34960;SDS011;30789;52.030;7.110;2022-11-11T07:20:06;4.47;;;3.03;;
34960;SDS011;30789;52.030;7.110;2022-11-11T07:22:35;8.68;;;3.20;;
34960;SDS011;30789;52.030;7.110;2022-11-11T07:25:02;8.68;;;3.13;;
34960;SDS011;30789;52.030;7.110;2022-11-11T07:27:29;5.05;;;2.88;;
34960;SDS011;30789;52.030;7.110;2022-11-11T07:29:55;6.72;;;3.47;;
34960;SDS011;30789;52.030;7.110;2022-11-11T07:32:22;16.23;;;5.28;;
34960;SDS011;30789;52.030;7.110;2022-11-11T07:34:48;9.45;;;3.38;;
34960;SDS011;30789;52.030;7.110;2022-11-11T07:37:15;5.20;;;2.63;;
34960;SDS011;30789;52.030;7.110;2022-11-11T07:39:43;4.43;;;2.83;;
34960;SDS011;30789;52.030;7.110;2022-11-11T07:42:09;5.22;;;2.65;;
34960;SDS011;30789;52.030;7.110;2022-11-11T07:44:36;3.85;;;2.80;;
34960;SDS011;30789;52.030;7.110;2022-11-11T07:47:02;5.20;;;3.00;;
34960;SDS011;30789;52.030;7.110;2022-11-11T07:49:29;5.90;;;2.65;;
34960;SDS011;30789;52.030;7.110;2022-11-11T07:51:55;5.03;;;2.25;;
34960;SDS011;30789;52.030;7.110;2022-11-11T07:54:22;3.85;;;2.47;;
34960;SDS011;30789;52.030;7.110;2022-11-11T07:56:49;4.00;;;2.63;;
34960;SDS011;30789;52.030;7.110;2022-11-11T07:59:16;4.68;;;2.70;;
34960;SDS011;30789;52.030;7.110;2022-11-11T08:01:43;5.45;;;2.90;;
34960;SDS011;30789;52.030;7.110;2022-11-11T08:04:09;6.15;;;2.50;;
34960;SDS011;30789;52.030;7.110;2022-11-11T08:06:36;5.20;;;2.55;;
34960;SDS011;30789;52.030;7.110;2022-11-11T08:09:02;5.25;;;2.78;;
34960;SDS011;30789;52.030;7.110;2022-11-11T08:11:29;4.43;;;2.35;;
34960;SDS011;30789;52.030;7.110;2022-11-11T08:14:14;6.80;;;2.80;;
34960;SDS011;30789;52.030;7.110;2022-11-11T08:16:41;7.55;;;2.75;;
34960;SDS011;30789;52.030;7.110;2022-11-11T08:19:07;8.38;;;2.95;;
34960;SDS011;30789;52.030;7.110;2022-11-11T08:21:34;6.72;;;3.25;;
34960;SDS011;30789;52.030;7.110;2022-11-11T08:24:00;4.90;;;2.90;;
34960;SDS011;30789;52.030;7.110;2022-11-11T08:26:27;9.60;;;3.22;;
34960;SDS011;30789;52.030;7.110;2022-11-11T08:28:54;4.97;;;2.83;;
34960;SDS011;30789;52.030;7.110;2022-11-11T08:31:22;7.18;;;3.08;;
34960;SDS011;30789;52.030;7.110;2022-11-11T08:33:48;5.03;;;2.88;;
34960;SDS011;30789;52.030;7.110;2022-11-11T08:36:15;6.40;;;2.90;;
34960;SDS011;30789;52.030;7.110;2022-11-11T08:38:41;4.22;;;2.65;;
34960;SDS011;30789;52.030;7.110;2022-11-11T08:41:09;4.97;;;3.25;;
34960;SDS011;30789;52.030;7.110;2022-11-11T08:43:35;5.97;;;2.60;;
34960;SDS011;30789;52.030;7.110;2022-11-11T08:46:03;9.57;;;3.40;;
34960;SDS011;30789;52.030;7.110;2022-11-11T08:48:31;5.90;;;3.20;;
34960;SDS011;30789;52.030;7.110;2022-11-11T08:50:58;5.97;;;2.65;;
34960;SDS011;30789;52.030;7.110;2022-11-11T08:53:25;8.25;;;2.75;;
34960;SDS011;30789;52.030;7.110;2022-11-11T08:55:51;4.93;;;2.70;;
34960;SDS011;30789;52.030;7.110;2022-11-11T08:58:18;7.13;;;2.83;;
34960;SDS011;30789;52.030;7.110;2022-11-11T09:00:45;4.55;;;2.38;;
34960;SDS011;30789;52.030;7.110;2022-11-11T09:03:11;5.55;;;2.58;;
34960;SDS011;30789;52.030;7.110;2022-11-11T09:05:39;4.63;;;2.65;;
34960;SDS011;30789;52.030;7.110;2022-11-11T09:08:06;4.63;;;2.70;;
34960;SDS011;30789;52.030;7.110;2022-11-11T09:10:33;6.43;;;2.75;;
34960;SDS011;30789;52.030;7.110;2022-11-11T09:13:00;7.32;;;2.90;;
34960;SDS011;30789;52.030;7.110;2022-11-11T09:15:28;3.95;;;2.63;;
34960;SDS011;30789;52.030;7.110;2022-11-11T09:17:55;5.25;;;2.45;;
34960;SDS011;30789;52.030;7.110;2022-11-11T09:20:22;5.10;;;2.60;;
34960;SDS011;30789;52.030;7.110;2022-11-11T09:22:50;5.30;;;2.58;;
34960;SDS011;30789;52.030;7.110;2022-11-11T09:25:17;4.45;;;2.45;;
34960;SDS011;30789;52.030;7.110;2022-11-11T09:27:52;5.72;;;2.60;;
34960;SDS011;30789;52.030;7.110;2022-11-11T09:30:19;3.70;;;2.40;;
34960;SDS011;30789;52.030;7.110;2022-11-11T09:32:46;4.40;;;2.45;;
34960;SDS011;30789;52.030;7.110;2022-11-11T09:35:12;5.18;;;2.30;;
34960;SDS011;30789;52.030;7.110;2022-11-11T09:37:39;6.60;;;2.83;;
34960;SDS011;30789;52.030;7.110;2022-11-11T09:40:08;3.92;;;2.22;;
34960;SDS011;30789;52.030;7.110;2022-11-11T09:42:41;5.60;;;2.35;;
34960;SDS011;30789;52.030;7.110;2022-11-11T09:45:15;6.15;;;3.20;;
34960;SDS011;30789;52.030;7.110;2022-11-11T09:47:48;4.85;;;2.38;;
34960;SDS011;30789;52.030;7.110;2022-11-11T09:50:21;7.70;;;2.85;;
34960;SDS011;30789;52.030;7.110;2022-11-11T09:52:50;3.72;;;2.72;;
34960;SDS011;30789;52.030;7.110;2022-11-11T09:55:24;3.67;;;2.50;;
34960;SDS011;30789;52.030;7.110;2022-11-11T09:57:57;6.15;;;2.40;;
34960;SDS011;30789;52.030;7.110;2022-11-11T10:00:27;3.45;;;2.60;;
34960;SDS011;30789;52.030;7.110;2022-11-11T10:02:56;4.95;;;2.55;;
34960;SDS011;30789;52.030;7.110;2022-11-11T10:05:28;3.13;;;2.40;;
34960;SDS011;30789;52.030;7.110;2022-11-11T10:07:58;3.72;;;2.53;;
34960;SDS011;30789;52.030;7.110;2022-11-11T10:10:33;3.45;;;2.47;;
34960;SDS011;30789;52.030;7.110;2022-11-11T10:13:10;4.20;;;2.50;;
34960;SDS011;30789;52.030;7.110;2022-11-11T10:15:40;6.35;;;2.28;;
34960;SDS011;30789;52.030;7.110;2022-11-11T10:18:16;3.95;;;1.88;;
34960;SDS011;30789;52.030;7.110;2022-11-11T10:20:54;3.58;;;2.22;;
34960;SDS011;30789;52.030;7.110;2022-11-11T10:23:23;5.15;;;2.70;;
34960;SDS011;30789;52.030;7.110;2022-11-11T10:25:56;8.98;;;2.28;;
34960;SDS011;30789;52.030;7.110;2022-11-11T10:28:28;3.20;;;1.70;;
34960;SDS011;30789;52.030;7.110;2022-11-11T10:30:58;5.65;;;1.83;;
34960;SDS011;30789;52.030;7.110;2022-11-11T10:33:28;4.15;;;1.95;;
34960;SDS011;30789;52.030;7.110;2022-11-11T10:36:01;2.78;;;1.75;;
34960;SDS011;30789;52.030;7.110;2022-11-11T10:38:31;5.35;;;1.95;;
34960;SDS011;30789;52.030;7.110;2022-11-11T10:41:04;5.07;;;1.60;;
34960;SDS011;30789;52.030;7.110;2022-11-11T10:43:39;2.25;;;1.40;;
34960;SDS011;30789;52.030;7.110;2022-11-11T10:46:12;4.07;;;1.23;;
34960;SDS011;30789;52.030;7.110;2022-11-11T10:48:44;3.83;;;1.50;;
34960;SDS011;30789;52.030;7.110;2022-11-11T10:51:21;4.05;;;1.70;;
34960;SDS011;30789;52.030;7.110;2022-11-11T10:53:51;3.67;;;1.80;;
34960;SDS011;30789;52.030;7.110;2022-11-11T10:56:25;4.72;;;1.95;;
34960;SDS011;30789;52.030;7.110;2022-11-11T10:58:57;2.95;;;1.50;;
34960;SDS011;30789;52.030;7.110;2022-11-11T11:01:36;3.75;;;1.77;;
34960;SDS011;30789;52.030;7.110;2022-11-11T11:04:09;4.32;;;1.70;;
34960;SDS011;30789;52.030;7.110;2022-11-11T11:06:41;5.00;;;1.83;;
34960;SDS011;30789;52.030;7.110;2022-11-11T11:09:12;2.67;;;1.38;;
34960;SDS011;30789;52.030;7.110;2022-11-11T11:11:47;4.78;;;1.70;;
34960;SDS011;30789;52.030;7.110;2022-11-11T11:14:18;3.60;;;1.75;;
34960;SDS011;30789;52.030;7.110;2022-11-11T11:16:49;5.57;;;1.95;;
34960;SDS011;30789;52.030;7.110;2022-11-11T11:19:20;5.78;;;1.80;;
34960;SDS011;30789;52.030;7.110;2022-11-11T11:21:51;5.13;;;1.90;;
34960;SDS011;30789;52.030;7.110;2022-11-11T11:24:19;3.80;;;1.33;;
34960;SDS011;30789;52.030;7.110;2022-11-11T11:26:50;4.72;;;1.85;;
34960;SDS011;30789;52.030;7.110;2022-11-11T11:29:23;3.97;;;1.70;;
34960;SDS011;30789;52.030;7.110;2022-11-11T11:31:54;3.05;;;1.25;;
34960;SDS011;30789;52.030;7.110;2022-11-11T11:34:21;4.47;;;1.38;;
34960;SDS011;30789;52.030;7.110;2022-11-11T11:37:07;5.22;;;1.50;;
34960;SDS011;30789;52.030;7.110;2022-11-11T11:39:34;3.47;;;1.58;;
34960;SDS011;30789;52.030;7.110;2022-11-11T11:42:03;2.70;;;1.27;;
34960;SDS011;30789;52.030;7.110;2022-11-11T11:44:31;3.58;;;1.30;;
34960;SDS011;30789;52.030;7.110;2022-11-11T11:47:09;4.00;;;1.40;;
34960;SDS011;30789;52.030;7.110;2022-11-11T11:49:53;2.75;;;1.30;;
34960;SDS011;30789;52.030;7.110;2022-11-11T11:52:35;3.80;;;1.40;;
34960;SDS011;30789;52.030;7.110;2022-11-11T11:55:10;2.10;;;1.20;;
34960;SDS011;30789;52.030;7.110;2022-11-11T11:57:45;4.45;;;1.10;;
34960;SDS011;30789;52.030;7.110;2022-11-11T12:00:21;2.85;;;0.82;;
34960;SDS011;30789;52.030;7.110;2022-11-11T12:02:55;6.22;;;1.27;;
34960;SDS011;30789;52.030;7.110;2022-11-11T12:08:25;4.88;;;1.02;;
34960;SDS011;30789;52.030;7.110;2022-11-11T12:11:04;3.80;;;0.90;;
34960;SDS011;30789;52.030;7.110;2022-11-11T12:13:43;4.30;;;0.98;;
34960;SDS011;30789;52.030;7.110;2022-11-11T12:16:23;5.18;;;1.30;;
34960;SDS011;30789;52.030;7.110;2022-11-11T12:21:32;3.60;;;0.80;;
34960;SDS011;30789;52.030;7.110;2022-11-11T12:24:11;3.45;;;1.00;;
34960;SDS011;30789;52.030;7.110;2022-11-11T12:26:48;1.92;;;0.90;;
34960;SDS011;30789;52.030;7.110;2022-11-11T12:29:26;4.40;;;0.95;;
34960;SDS011;30789;52.030;7.110;2022-11-11T12:32:14;2.70;;;0.88;;
34960;SDS011;30789;52.030;7.110;2022-11-11T12:34:58;2.08;;;1.05;;
34960;SDS011;30789;52.030;7.110;2022-11-11T12:37:49;3.78;;;0.98;;
34960;SDS011;30789;52.030;7.110;2022-11-11T12:40:26;2.35;;;0.70;;
34960;SDS011;30789;52.030;7.110;2022-11-11T12:43:02;1.73;;;0.82;;
34960;SDS011;30789;52.030;7.110;2022-11-11T12:45:41;3.47;;;0.80;;
34960;SDS011;30789;52.030;7.110;2022-11-11T12:48:17;3.08;;;1.02;;
34960;SDS011;30789;52.030;7.110;2022-11-11T12:50:57;4.15;;;0.68;;
34960;SDS011;30789;52.030;7.110;2022-11-11T12:53:32;2.75;;;0.90;;
34960;SDS011;30789;52.030;7.110;2022-11-11T12:56:07;2.42;;;0.75;;
34960;SDS011;30789;52.030;7.110;2022-11-11T12:58:42;2.03;;;0.73;;
34960;SDS011;30789;52.030;7.110;2022-11-11T13:01:19;3.40;;;0.82;;
34960;SDS011;30789;52.030;7.110;2022-11-11T13:03:57;3.13;;;1.00;;
34960;SDS011;30789;52.030;7.110;2022-11-11T13:06:41;1.27;;;0.80;;
34960;SDS011;30789;52.030;7.110;2022-11-11T13:12:13;1.75;;;0.68;;
34960;SDS011;30789;52.030;7.110;2022-11-11T13:14:48;0.95;;;0.40;;
34960;SDS011;30789;52.030;7.110;2022-11-11T13:17:22;1.23;;;0.55;;
34960;SDS011;30789;52.030;7.110;2022-11-11T13:19:50;1.40;;;0.68;;
34960;SDS011;30789;52.030;7.110;2022-11-11T13:22:21;2.42;;;0.60;;
34960;SDS011;30789;52.030;7.110;2022-11-11T13:24:50;1.88;;;0.60;;
34960;SDS011;30789;52.030;7.110;2022-11-11T13:27:19;1.45;;;0.75;;
34960;SDS011;30789;52.030;7.110;2022-11-11T13:30:05;1.63;;;0.70;;
34960;SDS011;30789;52.030;7.110;2022-11-11T13:32:41;1.73;;;0.50;;
34960;SDS011;30789;52.030;7.110;2022-11-11T13:35:20;1.27;;;0.70;;
34960;SDS011;30789;52.030;7.110;2022-11-11T13:37:52;1.38;;;0.70;;
34960;SDS011;30789;52.030;7.110;2022-11-11T13:43:05;1.40;;;0.77;;
34960;SDS011;30789;52.030;7.110;2022-11-11T13:45:48;1.65;;;0.73;;
34960;SDS011;30789;52.030;7.110;2022-11-11T13:48:23;1.63;;;0.70;;
34960;SDS011;30789;52.030;7.110;2022-11-11T13:50:52;3.72;;;0.50;;
34960;SDS011;30789;52.030;7.110;2022-11-11T13:53:35;1.45;;;0.60;;
34960;SDS011;30789;52.030;7.110;2022-11-11T13:56:04;2.65;;;1.30;;
34960;SDS011;30789;52.030;7.110;2022-11-11T13:58:32;0.95;;;0.50;;
34960;SDS011;30789;52.030;7.110;2022-11-11T14:01:01;3.15;;;0.70;;
34960;SDS011;30789;52.030;7.110;2022-11-11T14:03:35;1.45;;;0.40;;
34960;SDS011;30789;52.030;7.110;2022-11-11T14:12:21;1.02;;;0.65;;
34960;SDS011;30789;52.030;7.110;2022-11-11T14:14:59;2.30;;;1.20;;
34960;SDS011;30789;52.030;7.110;2022-11-11T14:17:27;3.72;;;0.90;;
34960;SDS011;30789;52.030;7.110;2022-11-11T14:19:56;1.20;;;0.82;;
34960;SDS011;30789;52.030;7.110;2022-11-11T14:22:29;2.63;;;0.73;;
34960;SDS011;30789;52.030;7.110;2022-11-11T14:25:17;3.35;;;1.20;;
34960;SDS011;30789;52.030;7.110;2022-11-11T14:27:46;3.00;;;0.90;;
34960;SDS011;30789;52.030;7.110;2022-11-11T14:33:06;2.80;;;1.45;;
34960;SDS011;30789;52.030;7.110;2022-11-11T14:35:46;3.13;;;1.63;;
34960;SDS011;30789;52.030;7.110;2022-11-11T14:38:26;4.68;;;1.90;;
34960;SDS011;30789;52.030;7.110;2022-11-11T14:47:16;4.35;;;1.02;;
34960;SDS011;30789;52.030;7.110;2022-11-11T14:49:58;2.35;;;0.85;;
34960;SDS011;30789;52.030;7.110;2022-11-11T14:52:27;5.05;;;0.90;;
34960;SDS011;30789;52.030;7.110;2022-11-11T14:55:02;2.13;;;1.10;;
34960;SDS011;30789;52.030;7.110;2022-11-11T14:57:45;1.70;;;0.85;;
34960;SDS011;30789;52.030;7.110;2022-11-11T15:00:15;3.20;;;0.82;;
34960;SDS011;30789;52.030;7.110;2022-11-11T15:02:45;3.30;;;1.23;;
34960;SDS011;30789;52.030;7.110;2022-11-11T15:05:16;2.08;;;0.90;;
34960;SDS011;30789;52.030;7.110;2022-11-11T15:10:51;2.75;;;1.00;;
34960;SDS011;30789;52.030;7.110;2022-11-11T15:13:39;1.30;;;1.02;;
34960;SDS011;30789;52.030;7.110;2022-11-11T15:16:33;5.88;;;2.80;;
34960;SDS011;30789;52.030;7.110;2022-11-11T15:19:13;4.05;;;1.27;;
34960;SDS011;30789;52.030;7.110;2022-11-11T15:21:52;4.50;;;1.33;;
34960;SDS011;30789;52.030;7.110;2022-11-11T15:24:33;2.60;;;1.20;;
34960;SDS011;30789;52.030;7.110;2022-11-11T15:27:07;3.22;;;1.70;;
34960;SDS011;30789;52.030;7.110;2022-11-11T15:29:46;1.60;;;1.15;;
34960;SDS011;30789;52.030;7.110;2022-11-11T15:32:31;4.60;;;1.75;;
34960;SDS011;30789;52.030;7.110;2022-11-11T15:35:08;2.50;;;1.70;;
34960;SDS011;30789;52.030;7.110;2022-11-11T15:37:51;3.10;;;1.80;;
34960;SDS011;30789;52.030;7.110;2022-11-11T15:40:21;2.72;;;1.50;;
34960;SDS011;30789;52.030;7.110;2022-11-11T15:42:48;3.22;;;1.42;;